Time;durP1;ratioP1;P1;durP2;ratioP2;P2;SDS_P1;SDS_P2;PMS_P1;PMS_P2;Temp;Humidity;BMP_temperature;BMP_pressure;BME280_temperature;BME280_humidity;BME280_pressure;Samples;Min_cycle;Max_cycle;Signal;HPM_P1;HPM_P2
2022/06/06 00:00:47;;;;;;;;;16.00;15.50;;;;;20.26;46.11;98848.47;6184738;28;97543;-70
2022/06/06 00:03:50;;;;;;;;;16.00;15.60;;;;;20.28;46.50;98859.13;6184368;28;97446;-70
2022/06/06 00:06:56;;;;;;;;;16.00;15.00;;;;;20.22;46.53;98852.88;6266815;27;98399;-71
2022/06/06 00:10:00;;;;;;;;;17.00;15.00;;;;;20.18;46.81;98853.72;6203175;27;97514;-71
2022/06/06 00:13:03;;;;;;;;;18.60;16.00;;;;;20.13;46.60;98860.06;6182716;28;97055;-71
2022/06/06 00:16:07;;;;;;;;;15.80;14.80;;;;;20.06;46.82;98866.94;6182743;28;96658;-70
2022/06/06 00:19:12;;;;;;;;;16.00;15.00;;;;;20.00;47.10;98862.59;6177579;27;96651;-71
2022/06/06 00:22:17;;;;;;;;;17.00;16.00;;;;;19.93;47.57;98851.16;6192840;27;97394;-70
2022/06/06 00:25:21;;;;;;;;;18.75;15.00;;;;;19.83;47.56;98844.66;6191479;27;98798;-71
2022/06/06 00:28:25;;;;;;;;;18.00;16.00;;;;;19.76;47.99;98848.78;6248939;27;97162;-69
2022/06/06 00:34:51;;;;;;;;;19.40;17.40;;;;;19.64;48.38;98854.59;6252742;27;97115;-70
2022/06/06 00:37:57;;;;;;;;;17.00;17.00;;;;;19.62;48.67;98855.97;6226221;27;97694;-70
2022/06/06 00:41:00;;;;;;;;;17.00;16.00;;;;;19.57;48.49;98851.34;6183754;28;97474;-71
2022/06/06 00:44:05;;;;;;;;;15.60;15.60;;;;;19.52;48.60;98842.34;6223258;27;99730;-71
2022/06/06 00:47:17;;;;;;;;;17.40;16.00;;;;;19.49;48.80;98848.38;6184882;27;97267;-70
2022/06/06 00:50:26;;;;;;;;;19.00;17.00;;;;;19.48;49.11;98844.00;6215113;27;96695;-70
2022/06/06 00:53:35;;;;;;;;;16.60;15.40;;;;;19.28;49.04;98810.16;6215201;27;97124;-70
2022/06/06 00:56:43;;;;;;;;;19.00;17.00;;;;;19.45;49.25;98837.16;6184238;27;96767;-69
2022/06/06 00:59:47;;;;;;;;;19.00;17.40;;;;;19.43;49.30;98840.19;6182646;28;97302;-70
2022/06/06 01:02:56;;;;;;;;;17.40;16.00;;;;;19.43;49.24;98839.34;6210294;27;99471;-70
2022/06/06 01:06:01;;;;;;;;;19.00;18.00;;;;;19.39;49.52;98839.09;6182739;28;97411;-70
2022/06/06 01:09:06;;;;;;;;;17.00;16.00;;;;;19.39;49.13;98849.22;6279342;27;98608;-69
2022/06/06 01:12:16;;;;;;;;;18.00;17.00;;;;;19.33;49.44;98853.06;6250338;27;96718;-70
2022/06/06 01:15:23;;;;;;;;;19.00;17.50;;;;;19.29;49.63;98860.19;6179295;28;97175;-70
2022/06/06 01:18:34;;;;;;;;;19.00;18.00;;;;;19.18;49.96;98855.84;6203049;27;98180;-70
2022/06/06 01:22:19;;;;;;;;;19.00;18.00;;;;;19.12;49.76;98855.03;6182506;27;97592;-70
2022/06/06 01:26:14;;;;;;;;;18.20;16.80;;;;;19.06;49.87;98847.94;6182006;27;97735;-70
2022/06/06 01:29:24;;;;;;;;;19.25;17.25;;;;;19.03;50.18;98853.97;6146263;28;98106;-70
2022/06/06 01:32:28;;;;;;;;;21.00;18.60;;;;;18.96;50.19;98854.25;6182589;28;96643;-70
2022/06/06 01:35:35;;;;;;;;;19.50;17.00;;;;;18.92;50.42;98850.44;6203552;27;97613;-69
2022/06/06 01:38:39;;;;;;;;;19.75;18.75;;;;;18.88;50.38;98835.72;6179840;28;96694;-70
2022/06/06 01:41:52;;;;;;;;;17.00;16.00;;;;;18.86;50.54;98835.16;6215691;27;97726;-70
2022/06/06 01:45:02;;;;;;;;;18.00;17.00;;;;;18.80;50.64;98839.00;6223767;27;96613;-70
2022/06/06 01:48:11;;;;;;;;;19.00;17.00;;;;;18.77;50.38;98847.75;6213301;27;96466;-70
2022/06/06 01:51:17;;;;;;;;;18.80;17.80;;;;;18.77;50.61;98836.81;6192660;27;98453;-70
2022/06/06 01:54:20;;;;;;;;;19.75;18.00;;;;;18.78;50.35;98846.66;6181503;28;96709;-69
2022/06/06 01:57:26;;;;;;;;;19.00;17.00;;;;;18.73;50.49;98851.31;6181333;28;98179;-70
2022/06/06 02:00:35;;;;;;;;;19.60;18.60;;;;;18.60;50.79;98839.88;6226246;27;96812;-71
2022/06/06 02:03:39;;;;;;;;;17.60;17.60;;;;;18.67;50.79;98845.03;6212073;27;98266;-70
2022/06/06 02:06:43;;;;;;;;;18.50;17.00;;;;;18.68;50.96;98837.66;6215844;27;97406;-70
2022/06/06 02:09:46;;;;;;;;;19.20;18.20;;;;;18.71;51.29;98842.59;6258905;27;98203;-70
2022/06/06 02:12:50;;;;;;;;;17.80;17.00;;;;;18.68;51.17;98846.66;6215453;27;98192;-70
2022/06/06 02:15:55;;;;;;;;;19.00;18.00;;;;;18.66;51.08;98846.13;6257114;27;96399;-70
2022/06/06 02:18:59;;;;;;;;;19.00;18.00;;;;;18.68;51.37;98852.13;6186307;27;96486;-70
2022/06/06 02:22:02;;;;;;;;;20.00;18.00;;;;;18.60;51.64;98839.88;6227342;27;96941;-70
2022/06/06 02:25:07;;;;;;;;;20.60;16.00;;;;;18.64;51.52;98842.03;6254298;27;97479;-70
2022/06/06 02:28:11;;;;;;;;;18.00;17.80;;;;;18.62;51.55;98836.84;6184701;28;96404;-70
2022/06/06 02:31:16;;;;;;;;;19.50;17.50;;;;;18.60;51.53;98818.03;6172066;28;97593;-70
2022/06/06 02:34:20;;;;;;;;;17.60;17.00;;;;;18.60;52.10;98818.03;6196918;27;98119;-71
2022/06/06 02:37:23;;;;;;;;;19.60;17.00;;;;;18.60;51.98;98823.47;6185991;27;97482;-71
2022/06/06 02:40:30;;;;;;;;;19.00;17.25;;;;;18.63;51.73;98824.00;6199500;27;96507;-70
2022/06/06 02:43:33;;;;;;;;;19.00;17.50;;;;;18.60;51.96;98818.03;6234046;27;97466;-71
2022/06/06 02:46:38;;;;;;;;;18.60;17.00;;;;;18.63;52.21;98829.47;6171757;28;97120;-69
2022/06/06 02:49:41;;;;;;;;;21.00;19.00;;;;;18.64;51.89;98831.09;6241648;27;98449;-69
2022/06/06 02:52:45;;;;;;;;;17.20;17.00;;;;;18.66;52.23;98832.50;6217385;27;96598;-69
2022/06/06 02:55:51;;;;;;;;;21.00;20.00;;;;;18.63;52.14;98821.28;6218500;27;99781;-69
2022/06/06 02:58:56;;;;;;;;;21.40;19.00;;;;;18.61;52.22;98810.66;6185625;28;96916;-69
2022/06/06 03:02:02;;;;;;;;;18.60;18.00;;;;;18.63;52.01;98813.91;6196488;27;97021;-71
2022/06/06 03:05:08;;;;;;;;;20.00;18.00;;;;;18.68;51.70;98829.47;6185712;28;96573;-70
2022/06/06 03:08:21;;;;;;;;;20.33;19.00;;;;;18.70;51.87;98838.22;6185804;28;97981;-70
2022/06/06 03:11:54;;;;;;;;;18.00;16.60;;;;;18.80;51.58;98835.47;6185923;28;97517;-70
2022/06/06 03:20:46;;;;;;;;;18.00;17.00;;;;;18.88;51.43;98827.50;6225753;27;97532;-69
2022/06/06 03:23:05;;;;;;;;;19.00;18.00;;;;;19.09;51.19;98833.75;6191876;27;96882;-70
2022/06/06 03:26:14;;;;;;;;;19.80;17.20;;;;;19.20;50.80;98842.72;6185742;28;97208;-70
2022/06/06 03:29:34;;;;;;;;;18.60;17.60;;;;;19.31;50.55;98850.59;6219071;27;96712;-70
2022/06/06 03:32:52;;;;;;;;;19.00;18.00;;;;;19.42;50.07;98865.06;6196431;27;97100;-69
2022/06/06 03:36:06;;;;;;;;;19.00;18.40;;;;;19.42;50.29;98863.13;6183537;28;96443;-70
2022/06/06 03:39:18;;;;;;;;;16.20;16.00;;;;;19.50;50.13;98871.91;6182754;28;97572;-69
2022/06/06 03:42:31;;;;;;;;;17.00;17.00;;;;;19.59;50.25;98873.78;6199845;27;96680;-70
2022/06/06 03:45:42;;;;;;;;;19.00;17.50;;;;;19.71;49.82;98876.16;6249050;27;96444;-69
2022/06/06 03:48:58;;;;;;;;;20.00;18.25;;;;;19.67;49.63;98839.53;6189004;27;96868;-70
2022/06/06 03:52:14;;;;;;;;;19.00;18.50;;;;;19.92;49.20;98857.72;6182232;28;96702;-70
2022/06/06 03:55:27;;;;;;;;;19.40;17.40;;;;;19.97;49.51;98854.97;6225435;27;98574;-70
2022/06/06 03:58:33;;;;;;;;;18.25;17.25;;;;;20.10;49.44;98846.09;6211107;27;97547;-71
2022/06/06 04:01:40;;;;;;;;;19.00;17.60;;;;;20.19;49.45;98838.91;6269234;27;97260;-71
2022/06/06 04:04:44;;;;;;;;;17.00;16.00;;;;;20.30;49.25;98824.06;6271377;27;96665;-70
2022/06/06 04:07:49;;;;;;;;;20.00;17.40;;;;;20.44;49.39;98833.28;6214359;27;97861;-70
2022/06/06 04:11:01;;;;;;;;;21.00;19.00;;;;;20.54;48.81;98833.19;6248549;27;98081;-70
2022/06/06 04:14:18;;;;;;;;;20.00;18.25;;;;;20.61;48.95;98835.59;6177778;28;97510;-70
2022/06/06 04:17:36;;;;;;;;;19.50;18.00;;;;;20.72;48.84;98842.63;6183390;28;96848;-70
2022/06/06 04:20:53;;;;;;;;;21.00;18.00;;;;;20.91;48.42;98840.78;6183301;28;97190;-70
2022/06/06 04:24:14;;;;;;;;;18.00;18.00;;;;;21.13;47.87;98840.25;6183451;28;97511;-70
2022/06/06 04:27:27;;;;;;;;;21.00;19.00;;;;;21.27;47.67;98846.69;6181826;28;97535;-70
2022/06/06 04:30:42;;;;;;;;;19.00;18.00;;;;;21.46;47.29;98844.81;6206739;27;96799;-70
2022/06/06 04:33:56;;;;;;;;;18.00;16.00;;;;;21.65;47.36;98836.59;6253353;27;97074;-69
2022/06/06 04:37:09;;;;;;;;;22.00;21.00;;;;;21.87;47.02;98833.28;6241647;27;97835;-70
2022/06/06 04:40:21;;;;;;;;;21.20;19.80;;;;;22.03;46.77;98841.06;6241859;27;96727;-69
2022/06/06 04:43:34;;;;;;;;;21.20;18.20;;;;;22.19;46.17;98840.78;6183171;28;97556;-71
2022/06/06 04:46:45;;;;;;;;;19.00;18.00;;;;;22.22;45.71;98837.47;6251300;27;96640;-70
2022/06/06 04:49:49;;;;;;;;;18.20;17.20;;;;;22.33;45.06;98839.72;6177187;28;96618;-69
2022/06/06 04:52:56;;;;;;;;;18.40;17.00;;;;;22.46;45.16;98839.00;6179891;28;97592;-71
2022/06/06 04:56:02;;;;;;;;;21.00;19.40;;;;;22.51;44.49;98827.09;6204229;27;97387;-70
2022/06/06 04:59:10;;;;;;;;;23.40;20.00;;;;;22.68;44.25;98843.00;6178547;28;97538;-70
2022/06/06 05:02:15;;;;;;;;;19.80;18.80;;;;;22.72;44.23;98844.91;6249722;27;96795;-70
2022/06/06 05:05:19;;;;;;;;;19.00;18.00;;;;;22.63;43.88;98841.16;6250228;27;100109;-69
2022/06/06 05:08:44;;;;;;;;;21.25;19.50;;;;;22.70;44.34;98838.88;6188522;27;98179;-70
2022/06/06 05:12:03;;;;;;;;;22.00;20.25;;;;;22.84;44.24;98847.16;6246442;27;96958;-71
2022/06/06 05:15:20;;;;;;;;;21.40;19.40;;;;;22.95;43.61;98845.84;6245773;27;97521;-70
2022/06/06 05:18:36;;;;;;;;;20.00;19.00;;;;;23.07;44.38;98845.34;6192861;27;96566;-70
2022/06/06 05:21:59;;;;;;;;;19.60;18.40;;;;;23.27;43.65;98850.44;6197385;27;97357;-70
2022/06/06 05:25:14;;;;;;;;;21.25;18.25;;;;;23.49;43.84;98852.53;6247340;27;96754;-70
2022/06/06 05:28:47;;;;;;;;;20.80;19.40;;;;;23.75;43.74;98856.34;6176515;27;97539;-70
2022/06/06 05:32:16;;;;;;;;;17.00;17.00;;;;;23.83;42.05;98869.41;6193741;27;97480;-69
2022/06/06 05:35:46;;;;;;;;;17.00;16.00;;;;;23.77;42.10;98869.81;6180848;28;96897;-69
2022/06/06 05:39:03;;;;;;;;;16.80;15.00;;;;;23.90;41.97;98861.53;6183292;28;96982;-69
2022/06/06 05:42:21;;;;;;;;;16.00;15.00;;;;;24.07;41.57;98853.44;6233025;27;99345;-70
2022/06/06 05:45:36;;;;;;;;;14.50;14.50;;;;;24.37;41.61;98862.13;6183352;28;96616;-71
2022/06/06 05:48:55;;;;;;;;;20.00;17.00;;;;;24.68;41.57;98862.97;6209957;27;97530;-71
2022/06/06 05:52:16;;;;;;;;;19.00;16.00;;;;;24.96;41.00;98864.50;6177910;28;97961;-70
2022/06/06 05:55:31;;;;;;;;;17.75;16.00;;;;;25.16;40.45;98865.09;6246042;27;96581;-70
2022/06/06 05:59:03;;;;;;;;;17.00;16.00;;;;;25.45;40.39;98868.13;6185517;27;97542;-70
2022/06/06 06:02:25;;;;;;;;;17.40;15.40;;;;;25.62;40.14;98856.34;6254298;27;96728;-70
2022/06/06 06:05:39;;;;;;;;;16.75;15.00;;;;;26.05;39.68;98882.09;6204311;27;96724;-70
2022/06/06 06:09:12;;;;;;;;;15.50;15.50;;;;;26.32;39.28;98872.72;6236286;27;97932;-71
2022/06/06 06:12:34;;;;;;;;;15.00;15.00;;;;;26.59;38.87;98875.13;6211991;27;96996;-71
2022/06/06 06:15:39;;;;;;;;;17.40;15.80;;;;;26.80;38.37;98871.69;6272713;27;97012;-70
2022/06/06 06:18:48;;;;;;;;;15.50;14.50;;;;;26.96;37.41;98881.13;6186066;28;96995;-70
2022/06/06 06:21:56;;;;;;;;;15.60;14.40;;;;;27.23;37.63;98883.47;6186682;28;96544;-71
2022/06/06 06:25:03;;;;;;;;;16.00;14.00;;;;;27.45;37.85;98880.47;6186008;28;97530;-70
2022/06/06 06:28:10;;;;;;;;;16.00;13.00;;;;;27.63;37.01;98877.63;6185954;28;97499;-71
2022/06/06 06:31:32;;;;;;;;;15.00;14.00;;;;;27.82;35.70;98886.31;6253520;27;97053;-70
2022/06/06 06:34:58;;;;;;;;;16.60;15.00;;;;;27.84;35.61;98892.34;6185509;28;97471;-69
2022/06/06 06:38:15;;;;;;;;;15.60;15.00;;;;;27.98;36.28;98895.69;6201957;27;97497;-70
2022/06/06 06:41:25;;;;;;;;;15.60;14.60;;;;;28.05;36.06;98889.59;6254004;27;99844;-72
2022/06/06 06:44:34;;;;;;;;;14.00;13.60;;;;;28.11;36.30;98889.09;6191819;27;96347;-71
2022/06/06 06:47:38;;;;;;;;;15.40;15.00;;;;;28.10;35.99;98886.63;6252451;27;97803;-71
2022/06/06 06:50:52;;;;;;;;;15.60;15.60;;;;;28.01;36.17;98886.69;6249861;27;98821;-70
2022/06/06 06:54:13;;;;;;;;;15.00;14.00;;;;;28.02;36.60;98893.84;6262632;27;97943;-71
2022/06/06 06:57:30;;;;;;;;;16.00;14.60;;;;;28.11;36.43;98882.69;6252369;27;98465;-69
2022/06/06 07:00:40;;;;;;;;;14.00;13.00;;;;;28.24;36.14;98882.50;6193289;27;97199;-70
2022/06/06 07:11:08;;;;;;;;;13.20;13.00;;;;;28.39;34.47;98867.19;6176179;28;96594;-71
2022/06/06 07:14:24;;;;;;;;;11.50;11.00;;;;;28.59;34.43;98882.97;6237868;27;96716;-72
2022/06/06 07:17:32;;;;;;;;;11.00;11.00;;;;;28.76;34.21;98887.59;6178835;27;97005;-72
2022/06/06 07:20:39;;;;;;;;;14.00;13.00;;;;;28.97;34.36;98891.16;6245639;27;96761;-72
2022/06/06 07:23:48;;;;;;;;;11.50;11.00;;;;;29.25;33.78;98892.13;6201217;27;97033;-72
2022/06/06 07:26:51;;;;;;;;;14.00;12.75;;;;;29.44;33.40;98883.25;6251872;27;97012;-72
2022/06/06 07:29:55;;;;;;;;;14.00;13.75;;;;;29.53;32.49;98886.72;6238683;27;96918;-72
2022/06/06 07:33:12;;;;;;;;;12.80;12.00;;;;;29.73;33.28;98890.56;6213921;27;97791;-71
2022/06/06 07:36:30;;;;;;;;;11.00;11.00;;;;;30.06;33.20;98887.66;6190681;27;96802;-71
2022/06/06 07:39:48;;;;;;;;;11.40;10.00;;;;;30.15;32.00;98880.00;6269646;27;96900;-71
2022/06/06 07:43:16;;;;;;;;;11.00;10.75;;;;;30.40;30.82;98889.88;6240122;27;96646;-70
2022/06/06 07:46:32;;;;;;;;;12.00;12.00;;;;;30.54;29.93;98884.75;6241770;27;97000;-71
2022/06/06 07:49:45;;;;;;;;;11.00;10.75;;;;;30.67;30.67;98887.50;6185186;28;96553;-70
2022/06/06 07:53:00;;;;;;;;;12.60;11.00;;;;;30.84;30.64;98888.00;6252788;27;97292;-71
2022/06/06 07:56:13;;;;;;;;;13.00;13.00;;;;;31.22;30.77;98886.69;6253501;27;98088;-71
2022/06/06 07:59:30;;;;;;;;;12.00;11.75;;;;;31.56;30.37;98883.22;6184980;28;96522;-70
2022/06/06 08:02:52;;;;;;;;;12.00;11.00;;;;;31.76;28.82;98884.09;6184578;28;97691;-71
2022/06/06 08:06:25;;;;;;;;;13.00;11.50;;;;;31.90;29.37;98878.03;6183592;28;96930;-71
2022/06/06 08:09:50;;;;;;;;;10.00;10.00;;;;;32.01;27.95;98879.09;6182867;28;97623;-70
2022/06/06 08:13:19;;;;;;;;;10.00;10.00;;;;;32.16;28.18;98887.44;6198032;27;96746;-70
2022/06/06 08:16:30;;;;;;;;;10.00;9.00;;;;;32.23;27.47;98884.81;6183273;28;96635;-71
2022/06/06 08:19:48;;;;;;;;;10.00;9.25;;;;;32.39;28.50;98879.16;6184115;28;97940;-71
2022/06/06 08:22:53;;;;;;;;;10.00;10.00;;;;;32.42;28.35;98886.81;6196449;27;96673;-69
2022/06/06 08:25:57;;;;;;;;;11.25;10.75;;;;;32.19;27.30;98877.53;6197067;27;96974;-72
2022/06/06 08:29:08;;;;;;;;;9.00;9.00;;;;;31.95;28.13;98884.13;6232314;27;96538;-71
2022/06/06 08:32:12;;;;;;;;;10.00;10.00;;;;;31.79;28.03;98883.34;6184893;28;96279;-71
2022/06/06 08:35:17;;;;;;;;;11.00;10.00;;;;;31.62;26.77;98881.75;6184567;28;96520;-71
2022/06/06 08:38:35;;;;;;;;;9.60;9.00;;;;;31.23;27.25;98866.81;6184551;28;97474;-71
2022/06/06 08:42:03;;;;;;;;;11.00;10.60;;;;;31.15;27.58;98875.34;6183081;27;98001;-71
2022/06/06 08:45:23;;;;;;;;;12.00;11.00;;;;;31.08;28.50;98877.94;6184591;28;97678;-71
2022/06/06 08:48:41;;;;;;;;;11.00;10.40;;;;;31.16;28.09;98886.13;6183052;27;99447;-71
2022/06/06 08:51:51;;;;;;;;;10.00;9.25;;;;;31.26;28.78;98882.00;6184092;28;97610;-71
2022/06/06 08:55:27;;;;;;;;;12.00;10.50;;;;;31.44;29.12;98880.47;6254916;27;96620;-71
2022/06/06 08:58:57;;;;;;;;;10.00;9.00;;;;;31.71;29.08;98853.69;6227038;27;98568;-71
2022/06/06 09:02:42;;;;;;;;;10.40;9.40;;;;;32.14;28.03;98884.22;6212957;27;98676;-72
2022/06/06 09:06:22;;;;;;;;;9.50;9.50;;;;;32.46;26.59;98882.09;6166282;27;96999;-70
2022/06/06 09:09:57;;;;;;;;;9.00;8.00;;;;;32.69;26.33;98875.81;6184011;28;96590;-71
2022/06/06 09:13:38;;;;;;;;;9.00;9.00;;;;;32.67;26.30;98874.19;6184115;28;96928;-70
2022/06/06 09:17:22;;;;;;;;;11.00;9.20;;;;;32.70;26.31;98864.25;6198224;27;99774;-71
2022/06/06 09:21:12;;;;;;;;;10.00;9.80;;;;;32.77;27.05;98869.19;6184163;28;97530;-71
2022/06/06 09:24:50;;;;;;;;;10.00;9.00;;;;;32.99;26.56;98855.25;6194777;28;97408;-70
2022/06/06 09:28:41;;;;;;;;;12.00;10.00;;;;;33.52;26.59;98861.00;6176104;28;97577;-71
2022/06/06 09:32:16;;;;;;;;;9.50;9.50;;;;;34.04;25.01;98863.03;6221602;28;98469;-70
2022/06/06 09:35:46;;;;;;;;;9.40;9.00;;;;;34.49;25.14;98850.06;6212297;27;97337;-70
2022/06/06 09:39:08;;;;;;;;;9.00;9.00;;;;;34.52;23.21;98849.28;6187673;28;97591;-71
2022/06/06 09:42:35;;;;;;;;;11.00;10.00;;;;;34.49;23.23;98853.66;6187225;28;96554;-71
2022/06/06 09:46:01;;;;;;;;;9.20;8.60;;;;;34.07;23.81;98837.09;6267675;27;97544;-69
2022/06/06 09:49:34;;;;;;;;;10.60;10.00;;;;;34.11;24.48;98840.72;6187070;28;96592;-71
2022/06/06 09:53:09;;;;;;;;;7.60;7.40;;;;;34.65;23.00;98837.44;6187157;28;96549;-71
2022/06/06 10:00:18;;;;;;;;;9.00;8.60;;;;;34.68;20.97;98842.31;6251043;27;96637;-71
2022/06/06 10:03:51;;;;;;;;;9.00;9.00;;;;;34.72;21.46;98840.38;6226041;27;96638;-71
2022/06/06 10:07:30;;;;;;;;;9.00;9.00;;;;;34.57;21.60;98838.56;6183630;28;97571;-70
2022/06/06 10:10:54;;;;;;;;;9.80;9.00;;;;;34.65;22.00;98843.03;6144380;28;97828;-72
2022/06/06 10:14:35;;;;;;;;;9.00;9.00;;;;;35.09;22.19;98833.94;6173635;28;96747;-70
2022/06/06 10:17:58;;;;;;;;;9.00;9.00;;;;;34.76;21.77;98841.22;6122106;28;96440;-71
2022/06/06 10:21:21;;;;;;;;;10.00;9.80;;;;;34.55;22.76;98832.53;6178818;28;98203;-71
2022/06/06 10:24:54;;;;;;;;;11.00;10.00;;;;;34.66;21.73;98813.84;6122504;28;97121;-71
2022/06/06 10:28:14;;;;;;;;;9.00;9.00;;;;;34.67;22.15;98821.09;6086967;28;96778;-71
2022/06/06 10:31:34;;;;;;;;;10.00;10.00;;;;;35.05;22.51;98821.88;6114844;28;96661;-71
2022/06/06 10:35:01;;;;;;;;;12.00;11.00;;;;;35.50;23.46;98817.91;6122012;28;96435;-71
2022/06/06 10:38:23;;;;;;;;;12.00;11.00;;;;;35.99;22.49;98811.84;6112242;28;97373;-69
2022/06/06 10:41:46;;;;;;;;;11.80;11.00;;;;;35.76;21.54;98794.47;6182706;28;96708;-70
2022/06/06 10:45:16;;;;;;;;;10.00;9.40;;;;;35.75;21.71;98793.66;6172781;28;97539;-69
2022/06/06 10:48:40;;;;;;;;;11.00;9.00;;;;;35.51;20.45;98794.28;6175497;28;97047;-70
2022/06/06 10:52:34;;;;;;;;;10.00;9.00;;;;;35.56;21.10;98791.91;6182239;28;98004;-71
2022/06/06 10:56:15;;;;;;;;;10.20;10.00;;;;;35.85;21.52;98789.31;6246743;27;97839;-70
2022/06/06 10:59:53;;;;;;;;;8.00;7.75;;;;;35.26;20.64;98754.84;6188014;27;96747;-71
2022/06/06 11:03:26;;;;;;;;;10.50;9.50;;;;;35.14;21.10;98783.13;6183220;28;97484;-71
2022/06/06 11:07:05;;;;;;;;;9.50;9.00;;;;;34.83;21.22;98790.06;6264905;27;96698;-69
2022/06/06 11:10:27;;;;;;;;;10.40;9.60;;;;;34.00;21.65;98786.66;6186104;28;97467;-71
2022/06/06 11:13:46;;;;;;;;;9.00;9.00;;;;;34.20;22.14;98785.34;6212277;27;96379;-69
2022/06/06 11:17:34;;;;;;;;;9.00;8.00;;;;;34.35;22.43;98775.13;6253678;27;99651;-69
2022/06/06 11:21:12;;;;;;;;;8.00;8.00;;;;;34.33;21.77;98772.69;6205219;28;96693;-70
2022/06/06 11:24:23;;;;;;;;;10.60;10.00;;;;;34.59;22.82;98776.59;6241795;27;98515;-71
2022/06/06 11:28:08;;;;;;;;;9.00;9.00;;;;;34.30;21.50;98779.06;6252678;27;97431;-70
2022/06/06 11:31:53;;;;;;;;;10.00;9.00;;;;;34.15;22.03;98768.06;6185729;28;97463;-69
2022/06/06 11:35:21;;;;;;;;;9.75;9.75;;;;;34.04;22.20;98765.13;6101135;28;96889;-72
2022/06/06 11:39:03;;;;;;;;;10.00;9.00;;;;;33.88;22.16;98761.69;6076806;28;96742;-69
2022/06/06 11:42:44;;;;;;;;;10.25;10.00;;;;;34.10;21.88;98760.00;6109959;28;97456;-69
2022/06/06 11:46:14;;;;;;;;;8.00;8.00;;;;;34.13;21.19;98756.44;6112062;28;96999;-70
2022/06/06 11:49:47;;;;;;;;;11.00;10.00;;;;;34.08;21.09;98767.94;6090895;28;97541;-70
2022/06/06 11:53:29;;;;;;;;;10.00;9.00;;;;;34.49;21.45;98749.28;6096979;28;97938;-70
2022/06/06 11:57:02;;;;;;;;;8.80;8.00;;;;;35.08;21.03;98768.69;6108809;28;97452;-69
2022/06/06 12:00:16;;;;;;;;;8.60;8.00;;;;;34.81;20.03;98752.41;6158441;28;97340;-71
2022/06/06 12:03:54;;;;;;;;;9.00;9.00;;;;;34.85;20.43;98750.44;6157150;28;97571;-71
2022/06/06 12:07:28;;;;;;;;;9.20;8.00;;;;;34.87;20.18;98748.88;6199430;27;99684;-71
2022/06/06 12:10:38;;;;;;;;;8.00;7.00;;;;;35.10;20.71;98746.69;6235455;28;96630;-69
2022/06/06 12:14:06;;;;;;;;;9.00;8.00;;;;;35.45;20.28;98736.94;6235169;28;96710;-70
2022/06/06 12:17:18;;;;;;;;;9.00;8.00;;;;;35.81;20.36;98733.19;6235095;28;96602;-70
2022/06/06 12:20:55;;;;;;;;;7.00;7.00;;;;;36.09;19.48;98740.13;6217653;28;96813;-70
2022/06/06 12:24:34;;;;;;;;;8.00;8.00;;;;;35.96;19.15;98734.88;6218341;28;97203;-70
2022/06/06 12:28:06;;;;;;;;;8.00;7.80;;;;;35.95;18.55;98724.84;6180648;28;100525;-69
2022/06/06 12:31:31;;;;;;;;;8.00;8.00;;;;;35.61;18.90;98724.25;6237595;27;96605;-70
2022/06/06 12:34:44;;;;;;;;;8.00;7.40;;;;;35.27;18.38;98722.03;6222648;28;97437;-71
2022/06/06 12:37:56;;;;;;;;;8.80;7.80;;;;;35.16;19.51;98721.91;6195795;28;97549;-71
2022/06/06 12:41:12;;;;;;;;;8.00;8.00;;;;;35.04;19.04;98709.00;6251707;27;97725;-70
2022/06/06 12:44:35;;;;;;;;;8.20;8.00;;;;;35.06;19.09;98708.63;6181091;28;96631;-70
2022/06/06 12:48:06;;;;;;;;;9.00;9.00;;;;;35.19;19.22;98704.34;6279581;27;97350;-71
2022/06/06 12:51:18;;;;;;;;;8.00;7.00;;;;;34.85;19.12;98688.81;6244212;27;97458;-70
2022/06/06 12:55:26;;;;;;;;;9.00;8.00;;;;;34.76;19.46;98689.97;6183452;28;96922;-70
2022/06/06 12:58:08;;;;;;;;;7.75;7.75;;;;;34.88;19.85;98672.06;6251158;27;97463;-70
2022/06/06 13:01:40;;;;;;;;;7.80;7.00;;;;;35.25;20.38;98671.16;6184378;28;98069;-70
2022/06/06 13:05:04;;;;;;;;;8.00;8.00;;;;;35.04;19.27;98660.59;6251712;27;97081;-70
2022/06/06 13:08:39;;;;;;;;;9.00;8.00;;;;;35.27;19.21;98675.19;6205773;27;96720;-70
2022/06/06 13:11:52;;;;;;;;;9.00;8.00;;;;;35.24;19.24;98673.13;6224630;27;97807;-72
2022/06/06 13:15:10;;;;;;;;;7.75;7.75;;;;;35.35;19.71;98676.81;6178841;28;97326;-69
2022/06/06 13:18:41;;;;;;;;;9.00;8.00;;;;;35.12;18.86;98667.84;6249204;27;98754;-70
2022/06/06 13:22:00;;;;;;;;;9.00;8.00;;;;;35.28;20.04;98670.38;6182903;28;96419;-70
2022/06/06 13:25:15;;;;;;;;;7.00;7.00;;;;;35.52;18.71;98656.50;6231057;27;97015;-70
2022/06/06 13:28:22;;;;;;;;;7.00;7.00;;;;;35.59;18.67;98664.13;6183598;28;96691;-69
2022/06/06 13:31:37;;;;;;;;;9.00;8.00;;;;;35.51;18.39;98659.69;6228128;27;96687;-69
2022/06/06 13:34:57;;;;;;;;;7.20;6.80;;;;;35.27;18.52;98654.75;6247291;27;98274;-70
2022/06/06 13:38:24;;;;;;;;;8.00;7.40;;;;;35.00;19.33;98654.94;6179748;28;97066;-70
2022/06/06 13:41:43;;;;;;;;;9.00;8.00;;;;;34.85;18.97;98658.81;6249484;27;96772;-70
2022/06/06 13:45:16;;;;;;;;;7.20;7.20;;;;;34.83;19.12;98652.81;6257725;27;99579;-70
2022/06/06 13:48:52;;;;;;;;;8.00;8.00;;;;;35.08;19.87;98653.00;6242808;27;96485;-71
2022/06/06 13:52:13;;;;;;;;;9.00;8.00;;;;;34.92;18.61;98652.47;6143393;28;97649;-70
2022/06/06 13:55:26;;;;;;;;;8.00;7.00;;;;;34.83;18.77;98652.81;6182711;28;96750;-70
2022/06/06 13:58:47;;;;;;;;;9.00;9.00;;;;;34.78;19.42;98651.19;6183230;28;97954;-70
2022/06/06 14:02:01;;;;;;;;;6.00;6.00;;;;;34.78;19.18;98656.00;6267299;27;97110;-70
2022/06/06 14:05:36;;;;;;;;;9.00;8.00;;;;;34.63;19.09;98652.22;6177419;28;96538;-69
2022/06/06 14:08:52;;;;;;;;;8.00;7.00;;;;;34.74;20.35;98655.16;6189957;27;97494;-71
2022/06/06 14:12:09;;;;;;;;;8.40;8.00;;;;;34.69;18.63;98655.50;6187279;28;97452;-70
2022/06/06 14:15:16;;;;;;;;;7.00;7.00;;;;;34.60;19.17;98643.81;6199619;27;99632;-70
2022/06/06 14:18:26;;;;;;;;;7.00;7.00;;;;;34.75;19.81;98651.94;6187133;28;97105;-70
2022/06/06 14:21:33;;;;;;;;;7.00;7.00;;;;;34.49;18.71;98654.09;6185165;28;97062;-71
2022/06/06 14:24:52;;;;;;;;;7.00;7.00;;;;;34.53;19.44;98652.13;6184929;28;97244;-70
2022/06/06 14:28:17;;;;;;;;;7.00;6.00;;;;;34.52;19.13;98650.53;6185200;28;96799;-69
2022/06/06 14:31:25;;;;;;;;;7.60;7.00;;;;;34.47;20.05;98640.47;6176357;28;97509;-71
2022/06/06 14:34:36;;;;;;;;;8.00;8.00;;;;;34.32;19.66;98633.13;6186699;28;97599;-70
2022/06/06 14:37:39;;;;;;;;;7.00;7.00;;;;;34.04;19.77;98639.22;6187093;28;97389;-71
2022/06/06 14:40:49;;;;;;;;;7.00;7.00;;;;;34.00;19.98;98638.41;6185135;28;100030;-69
2022/06/06 14:43:56;;;;;;;;;8.00;8.00;;;;;33.77;19.80;98626.56;6185551;28;97567;-70
2022/06/06 14:47:13;;;;;;;;;8.00;8.00;;;;;33.46;20.58;98634.13;6186769;28;96968;-69
2022/06/06 14:53:48;;;;;;;;;8.00;8.00;;;;;33.22;20.45;98629.00;6177203;28;97140;-70
2022/06/06 14:56:54;;;;;;;;;7.20;7.00;;;;;33.15;21.11;98628.06;6240531;27;96989;-70
2022/06/06 15:00:02;;;;;;;;;9.40;8.00;;;;;33.19;21.44;98626.16;6186644;28;97600;-69
2022/06/06 15:03:07;;;;;;;;;7.20;7.20;;;;;33.17;20.48;98620.94;6253432;27;97726;-70
2022/06/06 15:06:13;;;;;;;;;6.00;6.00;;;;;33.17;20.49;98620.16;6251940;27;96773;-70
2022/06/06 15:09:37;;;;;;;;;6.00;6.00;;;;;33.08;19.83;98621.22;6186076;28;96508;-70
2022/06/06 15:12:40;;;;;;;;;9.00;8.00;;;;;33.05;19.58;98615.53;6226991;27;98374;-71
2022/06/06 15:15:48;;;;;;;;;8.00;7.60;;;;;33.08;20.26;98621.22;6200655;27;97736;-71
2022/06/06 15:18:55;;;;;;;;;7.00;7.00;;;;;33.20;21.95;98622.16;6247470;27;97462;-71
2022/06/06 15:22:01;;;;;;;;;7.00;7.00;;;;;33.22;20.93;98617.03;6186163;28;96447;-71
2022/06/06 15:25:06;;;;;;;;;7.00;6.20;;;;;33.04;19.88;98591.59;6227627;27;96787;-71
2022/06/06 15:28:28;;;;;;;;;7.00;7.00;;;;;33.14;19.76;98618.88;6184551;28;96921;-70
2022/06/06 15:31:45;;;;;;;;;8.00;8.00;;;;;32.92;19.35;98609.38;6185648;28;96384;-70
2022/06/06 15:35:00;;;;;;;;;6.60;6.60;;;;;32.76;19.94;98602.34;6185568;28;96542;-70